createdAt,value
2022-08-07T00:00:40.175Z,58.54
2022-08-07T00:01:44.219Z,59.05
2022-08-07T00:02:41.671Z,58.25
2022-08-07T00:03:38.328Z,58.34
2022-08-07T00:04:38.288Z,58.25
2022-08-07T00:05:37.372Z,58.04
2022-08-07T00:06:37.244Z,58.25
2022-08-07T00:07:41.227Z,58.45
2022-08-07T00:08:37.224Z,58.92
2022-08-07T00:09:38.205Z,59.02
2022-08-07T00:10:48.017Z,58.85
2022-08-07T00:11:47.841Z,59.56
2022-08-07T00:12:56.902Z,59.25
2022-08-07T00:13:40.506Z,59.76
2022-08-07T00:14:38.147Z,59.25
2022-08-07T00:15:46.421Z,59.35
2022-08-07T00:16:38.102Z,59.05
2022-08-07T00:17:37.092Z,59.25
2022-08-07T00:18:37.082Z,59.25
2022-08-07T00:20:02.507Z,60.26
2022-08-07T00:20:38.051Z,60.26
2022-08-07T00:21:56.221Z,59.86
2022-08-07T00:22:38.072Z,60.39
2022-08-07T00:23:37.049Z,60.80
2022-08-07T00:24:37.003Z,60.69
2022-08-07T00:25:37.567Z,60.80
2022-08-07T00:26:59.503Z,61.10
2022-08-07T00:27:53.485Z,61.20
2022-08-07T00:28:46.180Z,61.10
2022-08-07T00:29:37.969Z,61.30
2022-08-07T00:30:36.922Z,60.49
2022-08-07T00:31:38.180Z,60.42
2022-08-07T00:32:36.910Z,61.03
2022-08-07T00:33:37.010Z,61.03
2022-08-07T00:34:36.890Z,61.13
2022-08-07T00:35:36.895Z,60.42
2022-08-07T00:36:38.679Z,60.72
2022-08-07T00:37:48.170Z,60.32
2022-08-07T00:38:39.106Z,60.52
2022-08-07T00:39:36.877Z,60.32
2022-08-07T00:40:40.526Z,60.32
2022-08-07T00:41:37.353Z,60.52
2022-08-07T00:42:37.771Z,60.19
2022-08-07T00:44:01.112Z,60.09
2022-08-07T00:44:38.349Z,60.09
2022-08-07T00:45:36.729Z,60.09
2022-08-07T00:46:36.709Z,59.99
2022-08-07T00:48:08.121Z,59.89
2022-08-07T00:48:42.345Z,60.19
2022-08-07T00:50:19.571Z,60.09
2022-08-07T00:50:46.461Z,59.89
2022-08-07T00:51:57.449Z,59.89
2022-08-07T00:52:37.648Z,59.89
2022-08-07T00:53:39.404Z,60.09
2022-08-07T00:54:37.607Z,59.99
2022-08-07T00:56:02.366Z,60.09
2022-08-07T00:56:37.589Z,60.09
2022-08-07T00:57:36.572Z,60.09
2022-08-07T00:58:36.569Z,60.09
2022-08-07T00:59:36.538Z,60.29
2022-08-07T01:00:36.554Z,60.60
2022-08-07T01:01:43.999Z,60.69
2022-08-07T01:02:37.505Z,60.60
2022-08-07T01:03:57.061Z,60.29
2022-08-07T01:04:43.093Z,60.89
2022-08-07T01:05:37.526Z,61.23
2022-08-07T01:06:36.455Z,61.23
2022-08-07T01:07:36.437Z,61.53
2022-08-07T01:08:36.517Z,61.73
2022-08-07T01:10:04.043Z,62.14
2022-08-07T01:10:37.408Z,61.73
2022-08-07T01:12:23.499Z,61.36
2022-08-07T01:12:37.384Z,62.37
2022-08-07T01:13:36.387Z,61.66
2022-08-07T01:14:37.183Z,61.36
2022-08-07T01:16:05.293Z,61.56
2022-08-07T01:16:37.316Z,61.66
2022-08-07T01:17:36.314Z,62.27
2022-08-07T01:18:36.314Z,62.16
2022-08-07T01:19:38.498Z,61.87
2022-08-07T01:20:42.991Z,61.66
2022-08-07T01:21:37.257Z,61.56
2022-08-07T01:22:36.266Z,61.96
2022-08-07T01:23:38.705Z,61.66
2022-08-07T01:24:36.222Z,61.87
2022-08-07T01:25:53.778Z,61.56
2022-08-07T01:26:37.200Z,61.76
2022-08-07T01:27:36.422Z,61.76
2022-08-07T01:28:37.187Z,61.76
2022-08-07T01:29:36.158Z,62.16
2022-08-07T01:30:36.155Z,61.87
2022-08-07T01:31:41.735Z,61.76
2022-08-07T01:32:37.129Z,61.66
2022-08-07T01:33:55.251Z,61.87
2022-08-07T01:34:37.106Z,61.76
2022-08-07T01:35:36.997Z,61.87
2022-08-07T01:36:40.375Z,61.76
2022-08-07T01:37:36.057Z,62.07
2022-08-07T01:38:36.048Z,62.37
2022-08-07T01:39:41.247Z,62.77
2022-08-07T01:40:37.022Z,61.96
2022-08-07T01:41:36.002Z,61.66
2022-08-07T01:42:40.102Z,61.76
2022-08-07T01:43:38.287Z,62.98
2022-08-07T01:44:35.969Z,62.77
2022-08-07T01:45:37.144Z,62.37
2022-08-07T01:46:35.931Z,62.67
2022-08-07T01:48:20.850Z,62.67
2022-08-07T01:48:37.567Z,62.47
2022-08-07T01:49:35.896Z,63.28
2022-08-07T01:50:35.884Z,63.18
2022-08-07T01:52:01.635Z,63.28
2022-08-07T01:52:36.852Z,63.48
2022-08-07T01:54:12.683Z,63.48
2022-08-07T01:54:37.485Z,62.77
2022-08-07T01:55:35.813Z,62.87
2022-08-07T01:56:35.858Z,63.28
2022-08-07T01:58:01.241Z,63.38
2022-08-07T01:58:37.529Z,63.28
2022-08-07T01:59:36.264Z,63.58
2022-08-07T02:00:38.836Z,63.21
2022-08-07T02:02:01.683Z,63.71
2022-08-07T02:03:11.732Z,64.02
2022-08-07T02:03:42.942Z,63.51
2022-08-07T02:04:36.709Z,63.41
2022-08-07T02:05:47.824Z,63.31
2022-08-07T02:06:36.671Z,63.31
2022-08-07T02:07:44.889Z,63.51
2022-08-07T02:08:36.646Z,63.21
2022-08-07T02:09:52.967Z,63.41
2022-08-07T02:10:36.621Z,64.02
2022-08-07T02:12:02.903Z,63.41
2022-08-07T02:12:36.598Z,64.52
2022-08-07T02:13:57.981Z,64.42
2022-08-07T02:14:40.718Z,64.12
2022-08-07T02:15:35.581Z,63.61
2022-08-07T02:16:35.542Z,63.75
2022-08-07T02:17:35.573Z,63.75
2022-08-07T02:18:35.519Z,63.64
2022-08-07T02:20:05.156Z,63.84
2022-08-07T02:20:36.529Z,64.35
2022-08-07T02:21:55.068Z,64.76
2022-08-07T02:22:40.956Z,64.86
2022-08-07T02:23:36.472Z,64.96
2022-08-07T02:24:35.449Z,65.13
2022-08-07T02:26:32.022Z,64.93
2022-08-07T02:26:36.419Z,65.13
2022-08-07T02:27:35.435Z,64.83
2022-08-07T02:28:35.386Z,64.73
2022-08-07T02:29:43.627Z,64.83
2022-08-07T02:30:36.357Z,64.93
2022-08-07T02:31:35.345Z,64.83
2022-08-07T02:32:35.342Z,65.03
2022-08-07T02:33:57.061Z,65.13
2022-08-07T02:34:36.327Z,64.83
2022-08-07T02:36:30.335Z,64.93
2022-08-07T02:36:36.323Z,64.86
2022-08-07T02:37:36.039Z,65.26
2022-08-07T02:38:35.250Z,65.36
2022-08-07T02:39:43.870Z,65.77
2022-08-07T02:40:36.272Z,65.67
2022-08-07T02:41:37.360Z,65.87
2022-08-07T02:42:35.235Z,65.77
2022-08-07T02:43:35.188Z,66.17
2022-08-07T02:44:36.541Z,66.07
2022-08-07T02:45:58.290Z,66.20
2022-08-07T02:46:36.867Z,65.90
2022-08-07T02:47:45.412Z,66.00
2022-08-07T02:48:36.128Z,66.30
2022-08-07T02:49:58.965Z,66.30
2022-08-07T02:50:36.099Z,66.41
2022-08-07T02:51:42.498Z,65.39
2022-08-07T02:52:36.071Z,66.50
2022-08-07T02:53:38.479Z,65.90
2022-08-07T02:54:35.056Z,66.41
2022-08-07T02:56:03.235Z,66.30
2022-08-07T02:56:36.024Z,66.50
2022-08-07T02:57:35.366Z,66.10
2022-08-07T02:58:35.013Z,65.59
2022-08-07T02:59:34.998Z,65.70
2022-08-07T03:00:34.975Z,66.20
2022-08-07T03:01:36.408Z,66.71
2022-08-07T03:02:35.953Z,66.50
2022-08-07T03:03:49.059Z,66.10
2022-08-07T03:04:35.922Z,65.80
2022-08-07T03:05:36.006Z,65.70
2022-08-07T03:06:34.977Z,66.20
2022-08-07T03:08:04.818Z,65.70
2022-08-07T03:08:35.864Z,66.00
2022-08-07T03:09:43.668Z,65.59
2022-08-07T03:10:35.842Z,65.50
2022-08-07T03:11:38.612Z,65.80
2022-08-07T03:12:34.814Z,65.70
2022-08-07T03:13:38.803Z,66.30
2022-08-07T03:14:34.817Z,66.30
2022-08-07T03:15:55.695Z,66.10
2022-08-07T03:16:35.762Z,65.50
2022-08-07T03:17:36.439Z,64.89
2022-08-07T03:18:36.287Z,65.39
2022-08-07T03:19:36.974Z,65.80
2022-08-07T03:20:34.709Z,65.09
2022-08-07T03:21:34.692Z,65.59
2022-08-07T03:22:34.684Z,64.99
2022-08-07T03:24:20.022Z,65.80
2022-08-07T03:24:36.764Z,65.50
2022-08-07T03:25:40.331Z,65.19
2022-08-07T03:26:35.644Z,64.99
2022-08-07T03:27:58.758Z,65.29
2022-08-07T03:28:37.493Z,64.69
2022-08-07T03:29:36.751Z,65.19
2022-08-07T03:30:34.586Z,64.99
2022-08-07T03:31:42.857Z,64.48
2022-08-07T03:32:35.539Z,64.58
2022-08-07T03:33:40.139Z,64.89
2022-08-07T03:34:39.193Z,64.28
2022-08-07T03:35:43.718Z,64.58
2022-08-07T03:36:35.499Z,65.09
2022-08-07T03:37:37.511Z,64.38
2022-08-07T03:38:35.490Z,64.38
2022-08-07T03:40:00.002Z,64.99
2022-08-07T03:40:36.452Z,64.48
2022-08-07T03:41:42.165Z,64.89
2022-08-07T03:42:36.011Z,64.48
2022-08-07T03:43:36.097Z,64.38
2022-08-07T03:44:34.788Z,64.69
2022-08-07T03:45:34.402Z,64.69
2022-08-07T03:46:35.391Z,65.09
2022-08-07T03:47:48.272Z,65.19
2022-08-07T03:48:45.414Z,64.99
2022-08-07T03:49:35.368Z,65.29
2022-08-07T03:50:34.904Z,65.39
2022-08-07T03:51:46.958Z,64.99
2022-08-07T03:52:35.309Z,64.58
2022-08-07T03:54:02.054Z,65.19
2022-08-07T03:54:55.199Z,64.48
2022-08-07T03:55:58.282Z,65.19
2022-08-07T03:56:35.273Z,64.58
2022-08-07T03:58:18.097Z,64.58
2022-08-07T03:59:07.888Z,64.89
2022-08-07T03:59:35.197Z,65.80
2022-08-07T04:00:36.356Z,65.90
2022-08-07T04:01:34.212Z,65.80
2022-08-07T04:02:34.167Z,65.80
2022-08-07T04:03:49.815Z,65.90
2022-08-07T04:04:35.175Z,66.00
2022-08-07T04:05:40.635Z,65.90
2022-08-07T04:06:37.860Z,65.90
2022-08-07T04:07:36.126Z,66.00
2022-08-07T04:08:35.124Z,65.77
2022-08-07T04:09:44.906Z,65.97
2022-08-07T04:10:35.076Z,66.07
2022-08-07T04:12:25.500Z,65.87
2022-08-07T04:12:35.257Z,65.67
2022-08-07T04:14:10.627Z,65.77
2022-08-07T04:14:38.772Z,64.96
2022-08-07T04:15:34.989Z,65.47
2022-08-07T04:16:33.994Z,65.26
2022-08-07T04:18:11.263Z,65.97
2022-08-07T04:18:59.146Z,65.47
2022-08-07T04:19:52.651Z,65.87
2022-08-07T04:20:35.320Z,66.07
2022-08-07T04:21:33.923Z,66.17
2022-08-07T04:22:33.906Z,65.97
2022-08-07T04:23:43.432Z,66.17
2022-08-07T04:24:39.166Z,66.07
2022-08-07T04:25:39.047Z,66.27
2022-08-07T04:26:34.860Z,66.38
2022-08-07T04:27:39.239Z,66.07
2022-08-07T04:28:34.847Z,66.17
2022-08-07T04:29:48.922Z,65.77
2022-08-07T04:30:43.380Z,65.43
2022-08-07T04:32:02.555Z,65.56
2022-08-07T04:32:35.282Z,65.77
2022-08-07T04:33:35.380Z,65.97
2022-08-07T04:34:34.148Z,64.86
2022-08-07T04:35:35.083Z,65.56
2022-08-07T04:36:33.731Z,65.97
2022-08-07T04:37:52.766Z,65.77
2022-08-07T04:38:34.700Z,64.65
2022-08-07T04:39:35.850Z,65.64
2022-08-07T04:40:33.670Z,65.73
2022-08-07T04:41:36.881Z,65.03
2022-08-07T04:42:33.650Z,64.22
2022-08-07T04:44:12.928Z,64.83
2022-08-07T04:44:34.621Z,65.13
2022-08-07T04:45:57.426Z,63.71
2022-08-07T04:46:35.945Z,65.40
2022-08-07T04:47:58.334Z,65.10
2022-08-07T04:48:34.606Z,65.30
2022-08-07T04:49:37.854Z,64.79
2022-08-07T04:50:34.606Z,64.39
2022-08-07T04:51:33.552Z,63.78
2022-08-07T04:52:33.532Z,63.58
2022-08-07T04:54:02.048Z,63.18
2022-08-07T04:54:34.510Z,63.18
2022-08-07T04:58:15.261Z,63.18
2022-08-07T04:58:23.767Z,62.98
2022-08-07T04:58:32.155Z,62.98
2022-08-07T04:59:09.121Z,62.77
2022-08-07T05:00:09.664Z,62.87
2022-08-07T05:00:34.687Z,62.85
2022-08-07T05:01:33.451Z,63.25
2022-08-07T05:02:33.380Z,62.85
2022-08-07T05:04:06.942Z,62.64
2022-08-07T05:04:34.355Z,63.15
2022-08-07T05:05:52.156Z,62.34
2022-08-07T05:06:43.050Z,61.83
2022-08-07T05:07:36.789Z,62.04
2022-08-07T05:08:59.483Z,61.94
2022-08-07T05:09:45.660Z,62.44
2022-08-07T05:10:34.310Z,62.24
2022-08-07T05:11:57.020Z,62.92
2022-08-07T05:12:34.248Z,62.41
2022-08-07T05:14:51.993Z,62.62
2022-08-07T05:14:55.367Z,63.12
2022-08-07T05:15:34.219Z,62.82
2022-08-07T05:16:33.891Z,61.80
2022-08-07T05:17:51.467Z,61.60
2022-08-07T05:18:34.177Z,61.60
2022-08-07T05:19:33.219Z,61.00
2022-08-07T05:20:34.149Z,60.29
2022-08-07T05:22:00.655Z,60.29
2022-08-07T05:22:34.113Z,60.49
2022-08-07T05:23:35.568Z,59.48
2022-08-07T05:24:40.688Z,59.99
2022-08-07T05:26:10.198Z,60.19
2022-08-07T05:26:34.076Z,59.78
2022-08-07T05:28:15.652Z,59.35
2022-08-07T05:28:34.067Z,59.45
2022-08-07T05:29:38.988Z,59.66
2022-08-07T05:30:34.060Z,59.45
2022-08-07T05:31:35.329Z,59.56
2022-08-07T05:32:32.978Z,59.15
2022-08-07T05:33:35.441Z,59.56
2022-08-07T05:34:32.975Z,59.66
2022-08-07T05:35:33.595Z,59.56
2022-08-07T05:36:35.788Z,60.57
2022-08-07T05:37:40.882Z,59.93
2022-08-07T05:39:00.982Z,59.53
2022-08-07T05:40:05.073Z,58.82
2022-08-07T05:40:33.929Z,59.63
2022-08-07T05:42:02.735Z,58.62
2022-08-07T05:42:34.863Z,59.33
2022-08-07T05:43:49.797Z,58.52
2022-08-07T05:44:33.846Z,58.52
2022-08-07T05:45:47.869Z,59.02
2022-08-07T05:46:33.804Z,59.83
2022-08-07T05:47:38.716Z,59.53
2022-08-07T05:48:34.072Z,59.63
2022-08-07T05:49:40.608Z,58.32
2022-08-07T05:50:33.750Z,59.12
2022-08-07T05:51:39.922Z,58.42
2022-08-07T05:52:32.915Z,58.82
2022-08-07T05:54:09.410Z,58.09
2022-08-07T05:54:53.147Z,57.98
2022-08-07T05:56:01.998Z,58.29
2022-08-07T05:56:33.665Z,57.68
2022-08-07T05:57:34.692Z,57.58
2022-08-07T05:58:36.825Z,57.18
2022-08-07T05:59:47.290Z,56.88
2022-08-07T06:00:33.614Z,56.98
2022-08-07T06:01:35.770Z,56.98
2022-08-07T06:02:32.686Z,57.28
2022-08-07T06:03:53.500Z,57.68
2022-08-07T06:04:33.566Z,56.68
2022-08-07T06:05:32.601Z,56.55
2022-08-07T06:06:32.895Z,57.96
2022-08-07T06:08:14.917Z,57.65
2022-08-07T06:08:34.172Z,56.15
2022-08-07T06:10:04.035Z,56.45
2022-08-07T06:10:33.497Z,57.65
2022-08-07T06:11:32.499Z,56.45
2022-08-07T06:12:33.308Z,56.24
2022-08-07T06:14:12.114Z,56.72
2022-08-07T06:14:33.459Z,55.91
2022-08-07T06:15:39.081Z,55.51
2022-08-07T06:16:33.413Z,55.91
2022-08-07T06:17:37.855Z,56.52
2022-08-07T06:18:33.381Z,55.41
2022-08-07T06:19:57.590Z,55.51
2022-08-07T06:20:51.008Z,55.59
2022-08-07T06:22:15.028Z,55.49
2022-08-07T06:22:38.512Z,55.08
2022-08-07T06:24:38.150Z,54.88
2022-08-07T06:24:46.266Z,56.90
2022-08-07T06:25:34.832Z,55.49
2022-08-07T06:26:32.300Z,54.86
2022-08-07T06:27:44.191Z,54.25
2022-08-07T06:28:33.254Z,54.35
2022-08-07T06:29:32.247Z,54.25
2022-08-07T06:30:37.188Z,54.46
2022-08-07T06:31:46.610Z,53.65
2022-08-07T06:32:33.187Z,54.05
2022-08-07T06:33:33.041Z,53.45
2022-08-07T06:34:32.223Z,53.42
2022-08-07T06:35:45.561Z,53.42
2022-08-07T06:36:35.573Z,53.42
2022-08-07T06:37:43.463Z,54.03
2022-08-07T06:38:33.120Z,52.51
2022-08-07T06:40:16.059Z,52.72
2022-08-07T06:40:34.504Z,51.71
2022-08-07T06:42:00.737Z,52.11
2022-08-07T06:42:35.036Z,51.91
2022-08-07T06:43:35.957Z,51.81
2022-08-07T06:44:33.040Z,52.31
2022-08-07T06:45:32.094Z,52.92
2022-08-07T06:46:35.324Z,52.19
2022-08-07T06:47:48.323Z,52.39
2022-08-07T06:48:32.987Z,51.68
2022-08-07T06:49:31.968Z,51.49
2022-08-07T06:50:31.958Z,51.18
2022-08-07T06:51:33.487Z,50.28
2022-08-07T06:52:35.819Z,50.38
2022-08-07T06:55:27.172Z,50.68
2022-08-07T06:55:31.567Z,50.05
2022-08-07T06:55:52.638Z,50.66
2022-08-07T06:56:32.996Z,50.35
2022-08-07T06:57:43.446Z,50.86
2022-08-07T06:58:32.866Z,51.04
2022-08-07T07:00:13.502Z,51.04
2022-08-07T07:00:32.828Z,51.04
2022-08-07T07:01:41.826Z,50.73
2022-08-07T07:02:53.741Z,50.63
2022-08-07T07:03:48.730Z,51.34
2022-08-07T07:04:34.072Z,50.84
2022-08-07T07:06:04.436Z,50.13
2022-08-07T07:06:32.766Z,50.63
2022-08-07T07:07:59.667Z,50.73
2022-08-07T07:08:33.342Z,50.73
2022-08-07T07:09:31.914Z,50.23
2022-08-07T07:10:31.687Z,50.01
2022-08-07T07:12:08.960Z,50.01
2022-08-07T07:12:33.676Z,50.01
2022-08-07T07:13:55.985Z,49.60
2022-08-07T07:14:32.637Z,49.40
2022-08-07T07:15:35.732Z,49.40
2022-08-07T07:16:33.335Z,48.80
2022-08-07T07:17:39.087Z,48.70
2022-08-07T07:18:37.676Z,48.98
2022-08-07T07:19:56.049Z,48.88
2022-08-07T07:20:32.573Z,48.98
2022-08-07T07:21:40.519Z,48.58
2022-08-07T07:22:36.346Z,48.78
2022-08-07T07:24:09.307Z,47.77
2022-08-07T07:24:32.506Z,48.18
2022-08-07T07:26:34.684Z,48.38
2022-08-07T07:26:36.952Z,48.38
2022-08-07T07:27:35.838Z,48.16
2022-08-07T07:29:22.755Z,47.97
2022-08-07T07:29:39.904Z,48.86
2022-08-07T07:30:38.745Z,48.75
2022-08-07T07:31:44.135Z,48.25
2022-08-07T07:32:32.404Z,48.16
2022-08-07T07:33:31.393Z,48.46
2022-08-07T07:34:31.872Z,48.05
2022-08-07T07:35:33.402Z,47.25
2022-08-07T07:36:32.558Z,47.75
2022-08-07T07:37:49.432Z,48.33
2022-08-07T07:38:32.344Z,47.93
2022-08-07T07:39:35.901Z,47.73
2022-08-07T07:40:32.299Z,47.53
2022-08-07T07:42:02.316Z,47.03
2022-08-07T07:42:33.161Z,47.03
2022-08-07T07:44:14.749Z,47.63
2022-08-07T07:44:32.242Z,47.53
2022-08-07T07:46:38.221Z,47.33
2022-08-07T07:46:53.295Z,47.13
2022-08-07T07:47:42.884Z,47.71
2022-08-07T07:48:35.174Z,46.91
2022-08-07T07:50:33.642Z,47.11
2022-08-07T07:50:39.082Z,47.41
2022-08-07T07:51:32.197Z,46.81
2022-08-07T07:52:32.158Z,47.31
2022-08-07T07:53:31.162Z,46.68
2022-08-07T07:54:31.124Z,46.88
2022-08-07T07:55:37.623Z,46.28
2022-08-07T07:56:32.121Z,46.18
2022-08-07T07:57:52.402Z,46.08
2022-08-07T07:58:36.984Z,46.28
2022-08-07T07:59:52.619Z,46.18
2022-08-07T08:00:34.459Z,46.41
2022-08-07T08:02:05.218Z,46.38
2022-08-07T08:02:35.443Z,46.28
2022-08-07T08:04:05.955Z,46.48
2022-08-07T08:04:32.066Z,45.68
2022-08-07T08:05:50.797Z,46.78
2022-08-07T08:06:31.992Z,46.68
2022-08-07T08:07:35.753Z,45.96
2022-08-07T08:08:34.741Z,46.06
2022-08-07T08:09:30.929Z,46.26
2022-08-07T08:10:37.729Z,45.96
2022-08-07T08:11:59.207Z,45.56
2022-08-07T08:12:52.477Z,45.56
2022-08-07T08:13:33.406Z,45.56
2022-08-07T08:14:31.918Z,44.86
2022-08-07T08:15:57.966Z,44.98
2022-08-07T08:16:31.979Z,45.68
2022-08-07T08:17:58.016Z,45.78
2022-08-07T08:18:31.812Z,45.76
2022-08-07T08:20:17.523Z,45.96
2022-08-07T08:20:32.391Z,45.96
2022-08-07T08:22:00.442Z,45.43
2022-08-07T08:22:32.685Z,45.84
2022-08-07T08:23:30.751Z,44.43
2022-08-07T08:24:44.844Z,44.93
2022-08-07T08:25:42.964Z,45.43
2022-08-07T08:26:31.699Z,45.24
2022-08-07T08:27:33.717Z,45.14
2022-08-07T08:28:37.589Z,45.14
2022-08-07T08:29:31.667Z,45.04
2022-08-07T08:30:32.145Z,44.34
2022-08-07T08:31:59.124Z,44.66
2022-08-07T08:32:38.721Z,45.56
2022-08-07T08:33:33.080Z,45.43
2022-08-07T08:34:30.607Z,45.34
2022-08-07T08:35:39.146Z,45.24
2022-08-07T08:36:31.607Z,45.34
2022-08-07T08:38:00.507Z,45.14
2022-08-07T08:38:35.340Z,44.84
2022-08-07T08:39:39.114Z,44.34
2022-08-07T08:40:31.580Z,44.16
2022-08-07T08:41:31.553Z,44.46
2022-08-07T08:42:31.499Z,44.96
2022-08-07T08:43:41.841Z,44.93
2022-08-07T08:44:31.534Z,44.64
2022-08-07T08:45:58.452Z,45.04
2022-08-07T08:46:31.432Z,44.84
2022-08-07T08:47:30.649Z,44.74
2022-08-07T08:48:32.572Z,44.01
2022-08-07T08:49:32.716Z,44.64
2022-08-07T08:50:39.172Z,44.51
2022-08-07T08:52:13.139Z,44.42
2022-08-07T08:52:35.884Z,44.51
2022-08-07T08:53:31.346Z,44.42
2022-08-07T08:54:30.353Z,44.21
2022-08-07T08:55:54.730Z,43.82
2022-08-07T08:56:31.322Z,43.84
2022-08-07T08:57:33.992Z,43.54
2022-08-07T08:58:30.317Z,44.04
2022-08-07T08:59:30.259Z,43.66
2022-08-07T09:00:31.248Z,43.66
2022-08-07T09:01:39.999Z,43.46
2022-08-07T09:02:36.754Z,43.66
2022-08-07T09:03:47.788Z,43.85
2022-08-07T09:04:31.206Z,43.76
2022-08-07T09:05:32.328Z,43.55
2022-08-07T09:06:31.171Z,43.55
2022-08-07T09:07:45.875Z,43.26
2022-08-07T09:08:31.169Z,42.76
2022-08-07T09:09:33.329Z,43.26
2022-08-07T09:10:31.117Z,43.04
2022-08-07T09:11:50.836Z,42.54
2022-08-07T09:12:32.270Z,42.91
2022-08-07T09:13:36.831Z,43.01
2022-08-07T09:14:31.069Z,42.32
2022-08-07T09:16:23.336Z,42.69
2022-08-07T09:16:31.090Z,42.69
2022-08-07T09:17:34.121Z,42.19
2022-08-07T09:18:31.104Z,41.67
2022-08-07T09:19:52.315Z,41.60
2022-08-07T09:20:35.942Z,41.60
2022-08-07T09:21:58.212Z,41.30
2022-08-07T09:24:28.570Z,41.89
2022-08-07T09:24:33.796Z,41.69
2022-08-07T09:24:59.451Z,41.69
2022-08-07T09:25:30.938Z,41.17
2022-08-07T09:26:29.928Z,41.08
2022-08-07T09:27:30.313Z,41.58
2022-08-07T09:30:01.574Z,41.27
2022-08-07T09:30:03.760Z,41.77
2022-08-07T09:30:30.865Z,41.67
2022-08-07T09:31:38.307Z,41.27
2022-08-07T09:32:31.094Z,41.58
2022-08-07T09:33:52.814Z,41.38
2022-08-07T09:34:30.815Z,41.55
2022-08-07T09:36:03.130Z,41.36
2022-08-07T09:36:35.432Z,41.55
2022-08-07T09:37:33.426Z,41.03
2022-08-07T09:38:30.748Z,40.94
2022-08-07T09:39:54.569Z,40.83
2022-08-07T09:40:30.796Z,40.56
2022-08-07T09:41:36.341Z,40.86
2022-08-07T09:42:33.603Z,41.27
2022-08-07T09:44:03.221Z,41.58
2022-08-07T09:44:52.098Z,41.99
2022-08-07T09:47:50.206Z,42.19
2022-08-07T09:47:50.259Z,42.41
2022-08-07T09:47:59.059Z,42.41
2022-08-07T09:48:50.121Z,42.41
2022-08-07T09:50:01.622Z,42.40
2022-08-07T09:50:30.617Z,42.60
2022-08-07T09:52:10.905Z,42.60
2022-08-07T09:52:34.359Z,42.60
2022-08-07T09:53:41.272Z,42.27
2022-08-07T09:54:30.649Z,42.15
2022-08-07T09:56:03.533Z,41.63
2022-08-07T09:56:37.415Z,40.34
2022-08-07T09:57:30.797Z,40.23
2022-08-07T09:58:32.232Z,39.92
2022-08-07T09:59:31.083Z,40.22
2022-08-07T10:00:31.961Z,40.01
2022-08-07T10:01:53.162Z,40.01
2022-08-07T10:02:31.599Z,40.01
2022-08-07T10:04:06.578Z,39.50
2022-08-07T10:04:32.929Z,39.70
2022-08-07T10:05:58.938Z,39.50
2022-08-07T10:06:30.467Z,39.20
2022-08-07T10:07:31.468Z,39.40
2022-08-07T10:08:29.415Z,39.50
2022-08-07T10:09:34.538Z,39.80
2022-08-07T10:10:30.358Z,39.22
2022-08-07T10:12:02.327Z,39.74
2022-08-07T10:12:30.319Z,40.04
2022-08-07T10:13:54.939Z,41.53
2022-08-07T10:14:31.296Z,42.13
2022-08-07T10:15:29.269Z,41.11
2022-08-07T10:16:30.270Z,41.00
2022-08-07T10:17:33.716Z,40.22
2022-08-07T10:18:31.459Z,40.30
2022-08-07T10:19:30.138Z,40.00
2022-08-07T10:20:30.515Z,39.28
2022-08-07T10:22:12.157Z,38.59
2022-08-07T10:22:33.255Z,38.89
2022-08-07T10:24:06.964Z,38.29
2022-08-07T10:24:30.159Z,38.39
2022-08-07T10:25:42.178Z,38.18
2022-08-07T10:26:30.137Z,38.18
2022-08-07T10:27:30.260Z,37.98
2022-08-07T10:28:30.111Z,38.18
2022-08-07T10:29:30.391Z,38.39
2022-08-07T10:30:29.077Z,38.09
2022-08-07T10:31:31.464Z,38.27
2022-08-07T10:32:51.143Z,38.76
2022-08-07T10:34:05.950Z,38.07
2022-08-07T10:34:32.347Z,37.79
2022-08-07T10:35:55.288Z,37.70
2022-08-07T10:36:30.241Z,38.20
2022-08-07T10:37:48.797Z,38.20
2022-08-07T10:38:35.899Z,38.50
2022-08-07T10:39:41.857Z,38.48
2022-08-07T10:40:30.445Z,38.37
2022-08-07T10:41:52.167Z,38.27
2022-08-07T10:42:31.091Z,37.67
2022-08-07T10:43:34.872Z,38.09
2022-08-07T10:44:38.506Z,38.18
2022-08-07T10:45:44.016Z,37.79
2022-08-07T10:46:29.893Z,37.59
2022-08-07T10:47:53.143Z,37.79
2022-08-07T10:48:34.896Z,38.12
2022-08-07T10:49:49.209Z,38.62
2022-08-07T10:50:29.853Z,39.14
2022-08-07T10:51:39.407Z,38.74
2022-08-07T10:52:33.531Z,39.43
2022-08-07T10:53:44.551Z,39.12
2022-08-07T10:54:29.791Z,38.31
2022-08-07T10:55:38.174Z,38.10
2022-08-07T10:56:31.439Z,38.32
2022-08-07T10:57:34.629Z,38.82
2022-08-07T10:58:33.220Z,39.22
2022-08-07T10:59:30.406Z,38.72
2022-08-07T11:00:36.212Z,39.04
2022-08-07T11:01:35.852Z,38.84
2022-08-07T11:02:33.645Z,39.04
2022-08-07T11:03:37.808Z,39.26
2022-08-07T11:04:34.883Z,39.65
2022-08-07T11:05:35.851Z,39.95
2022-08-07T11:06:29.626Z,39.46
2022-08-07T11:08:00.835Z,39.65
2022-08-07T11:08:30.428Z,38.96
2022-08-07T11:10:09.237Z,39.04
2022-08-07T11:10:29.554Z,39.14
2022-08-07T11:11:28.576Z,39.14
2022-08-07T11:12:32.134Z,39.14
2022-08-07T11:14:42.684Z,39.34
2022-08-07T11:14:46.519Z,39.04
2022-08-07T11:15:31.990Z,39.14
2022-08-07T11:16:30.497Z,39.43
2022-08-07T11:17:43.112Z,39.04
2022-08-07T11:18:29.456Z,39.36
2022-08-07T11:19:28.466Z,39.46
2022-08-07T11:20:28.447Z,39.26
2022-08-07T11:21:28.404Z,39.56
2022-08-07T11:22:36.072Z,39.36
2022-08-07T11:23:36.390Z,39.06
2022-08-07T11:24:29.375Z,39.26
2022-08-07T11:25:28.361Z,39.46
2022-08-07T11:26:28.361Z,39.06
2022-08-07T11:28:00.861Z,39.34
2022-08-07T11:28:29.335Z,38.74
2022-08-07T11:29:43.047Z,38.62
2022-08-07T11:30:41.622Z,39.10
2022-08-07T11:31:29.290Z,38.18
2022-08-07T11:32:29.264Z,37.67
2022-08-07T11:33:53.875Z,37.45
2022-08-07T11:34:29.246Z,37.15
2022-08-07T11:35:28.235Z,36.74
2022-08-07T11:36:30.746Z,36.34
2022-08-07T11:37:38.701Z,36.55
2022-08-07T11:38:29.205Z,37.17
2022-08-07T11:39:39.563Z,36.87
2022-08-07T11:40:29.202Z,37.47
2022-08-07T11:41:29.610Z,37.38
2022-08-07T11:42:29.719Z,38.00
2022-08-07T11:43:29.614Z,38.00
2022-08-07T11:44:29.120Z,38.31
2022-08-07T11:45:35.428Z,37.70
2022-08-07T11:46:29.086Z,38.31
2022-08-07T11:47:39.113Z,37.92
2022-08-07T11:48:30.290Z,38.62
2022-08-07T11:50:18.508Z,38.22
2022-08-07T11:50:32.422Z,38.12
2022-08-07T11:52:18.934Z,38.22
2022-08-07T11:53:21.862Z,37.92
2022-08-07T11:54:22.150Z,37.92
2022-08-07T11:56:09.273Z,38.40
2022-08-07T11:56:26.964Z,39.00
2022-08-07T11:57:19.865Z,38.50
2022-08-07T11:58:19.849Z,38.10
2022-08-07T12:00:08.938Z,38.18
2022-08-07T12:00:20.233Z,37.68
2022-08-07T12:01:20.175Z,37.90
2022-08-07T12:02:20.899Z,37.60
2022-08-07T12:03:45.142Z,37.49
2022-08-07T12:04:19.820Z,37.49
2022-08-07T12:05:28.233Z,37.79
2022-08-07T12:06:37.512Z,37.68
2022-08-07T12:07:38.727Z,37.70
2022-08-07T12:08:25.852Z,38.31
2022-08-07T12:09:22.935Z,38.39
2022-08-07T12:10:18.721Z,38.89
2022-08-07T12:11:21.924Z,37.87
2022-08-07T12:12:18.679Z,37.47
2022-08-07T12:13:19.153Z,37.68
2022-08-07T12:14:19.663Z,37.68
2022-08-07T12:15:46.106Z,37.68
2022-08-07T12:16:29.954Z,37.49
2022-08-07T12:17:20.473Z,37.68
2022-08-07T12:18:22.277Z,37.08
2022-08-07T12:19:21.325Z,37.79
2022-08-07T12:20:30.601Z,38.09
2022-08-07T12:21:21.143Z,37.38
2022-08-07T12:22:37.043Z,37.79
2022-08-07T12:23:37.244Z,37.77
2022-08-07T12:24:37.567Z,37.67
2022-08-07T12:26:02.778Z,37.45
2022-08-07T12:26:30.092Z,37.43
2022-08-07T12:27:28.019Z,36.83
2022-08-07T12:28:30.781Z,36.62
2022-08-07T12:29:37.160Z,36.32
2022-08-07T12:30:19.432Z,36.72
2022-08-07T12:31:23.596Z,36.22
2022-08-07T12:32:19.428Z,36.50
2022-08-07T12:33:23.268Z,35.92
2022-08-07T12:34:19.467Z,35.92
2022-08-07T12:35:19.219Z,36.44
2022-08-07T12:36:18.361Z,36.04
2022-08-07T12:37:27.657Z,36.65
2022-08-07T12:38:36.856Z,36.85
2022-08-07T12:39:42.790Z,36.95
2022-08-07T12:40:46.443Z,37.07
2022-08-07T12:41:19.438Z,36.76
2022-08-07T12:42:18.283Z,36.85
2022-08-07T12:44:02.039Z,36.97
2022-08-07T12:44:19.262Z,36.87
2022-08-07T12:45:18.262Z,37.57
2022-08-07T12:46:26.307Z,37.77
2022-08-07T12:47:21.819Z,37.67
2022-08-07T12:48:27.895Z,37.37
2022-08-07T12:49:40.112Z,37.67
2022-08-07T12:50:38.200Z,37.87
2022-08-07T12:51:19.162Z,37.29
2022-08-07T12:52:19.397Z,37.38
2022-08-07T12:53:19.034Z,38.09